createdAt,value
2022-10-22T00:00:25.426Z,100875.13
2022-10-22T00:05:15.173Z,100875.19
2022-10-22T00:10:08.557Z,100883.03
2022-10-22T00:14:58.389Z,100877.97
2022-10-22T00:19:48.287Z,100891.78
2022-10-22T00:24:38.885Z,100892.75
2022-10-22T00:29:31.334Z,100900.53
2022-10-22T00:34:22.396Z,100890.22
2022-10-22T00:39:13.129Z,100891.97
2022-10-22T00:44:09.961Z,100889.41
2022-10-22T00:49:05.239Z,100880.81
2022-10-22T00:53:58.609Z,100891.22
2022-10-22T00:58:51.994Z,100895.56
2022-10-22T01:03:41.621Z,100901.66
2022-10-22T01:08:46.217Z,100893.88
2022-10-22T01:13:49.529Z,100906.00
2022-10-22T01:18:48.332Z,100912.09
2022-10-22T01:24:07.061Z,100906.91
2022-10-22T01:29:05.415Z,100906.09
2022-10-22T01:33:57.634Z,100911.31
2022-10-22T01:38:49.295Z,100907.00
2022-10-22T01:43:39.143Z,100907.91
2022-10-22T01:48:45.462Z,100893.19
2022-10-22T01:59:01.117Z,100895.78
2022-10-22T02:04:02.335Z,100900.13
2022-10-22T02:08:55.473Z,100901.88
2022-10-22T02:13:49.191Z,100906.16
2022-10-22T02:18:43.590Z,100895.75
2022-10-22T02:23:37.025Z,100896.63
2022-10-22T02:28:40.055Z,100891.44
2022-10-22T02:33:33.498Z,100899.19
2022-10-22T02:38:24.987Z,100903.56
2022-10-22T02:43:18.074Z,100901.78
2022-10-22T02:48:09.518Z,100900.94
2022-10-22T02:53:00.489Z,100897.50
2022-10-22T02:57:54.416Z,100903.59
2022-10-22T03:02:47.776Z,100912.28
2022-10-22T03:07:39.114Z,100911.41
2022-10-22T03:12:30.359Z,100914.06
2022-10-22T03:17:25.098Z,100908.06
2022-10-22T03:22:24.739Z,100920.19
2022-10-22T03:27:21.051Z,100921.97
2022-10-22T03:32:11.957Z,100927.16
2022-10-22T03:37:04.124Z,100928.94
2022-10-22T03:41:56.807Z,100933.31
2022-10-22T03:46:47.708Z,100928.13
2022-10-22T03:51:38.547Z,100936.81
2022-10-22T03:56:29.597Z,100937.66
2022-10-22T04:01:25.759Z,100924.78
2022-10-22T04:06:17.132Z,100941.16
2022-10-22T04:11:11.563Z,100940.31
2022-10-22T04:16:13.103Z,100943.78
2022-10-22T04:21:09.315Z,100951.59
2022-10-22T04:26:05.010Z,100959.41
2022-10-22T04:30:55.738Z,100958.59
2022-10-22T04:35:46.293Z,100956.84
2022-10-22T04:40:39.100Z,100962.06
2022-10-22T04:45:29.785Z,100956.94
2022-10-22T04:50:20.441Z,100962.09
2022-10-22T04:55:12.458Z,100972.53
2022-10-22T05:00:09.269Z,100973.41
2022-10-22T05:05:00.037Z,100977.78
2022-10-22T05:09:50.568Z,100983.88
2022-10-22T05:14:44.036Z,100986.50
2022-10-22T05:19:38.879Z,100988.22
2022-10-22T05:24:33.314Z,100984.78
2022-10-22T05:29:28.979Z,100980.47
2022-10-22T05:34:22.493Z,100987.38
2022-10-22T05:39:16.683Z,100994.38
2022-10-22T05:44:08.618Z,101003.03
2022-10-22T05:49:02.699Z,101003.91
2022-10-22T05:53:55.988Z,101010.00
2022-10-22T05:58:52.649Z,101011.75
2022-10-22T06:03:53.221Z,101014.38
2022-10-22T06:08:44.543Z,101014.38
2022-10-22T06:13:38.695Z,101027.41
2022-10-22T06:18:49.389Z,101033.47
2022-10-22T06:23:40.772Z,101044.72
2022-10-22T06:28:31.954Z,101051.63
2022-10-22T06:33:38.568Z,101052.44
2022-10-22T06:38:34.870Z,101050.72
2022-10-22T06:43:26.041Z,101062.78
2022-10-22T06:48:16.453Z,101064.50
2022-10-22T06:53:09.860Z,101074.88
2022-10-22T06:58:03.325Z,101078.31
2022-10-22T07:03:01.279Z,101081.78
2022-10-22T07:07:52.111Z,101096.50
2022-10-22T07:12:48.172Z,101107.75
2022-10-22T07:17:42.183Z,101108.63
2022-10-22T07:22:32.957Z,101125.91
2022-10-22T07:27:23.476Z,101123.25
2022-10-22T07:32:15.008Z,101135.38
2022-10-22T07:37:08.287Z,101154.38
2022-10-22T07:41:58.721Z,101149.13
2022-10-22T07:46:49.144Z,101159.47
2022-10-22T07:51:42.929Z,101174.13
2022-10-22T07:56:36.090Z,101179.28
2022-10-22T08:01:26.779Z,101180.94
2022-10-22T08:06:17.858Z,101192.16
2022-10-22T08:11:08.512Z,101205.19
2022-10-22T08:16:02.437Z,101215.59
2022-10-22T08:20:53.396Z,101214.66
2022-10-22T08:25:43.917Z,101217.25
2022-10-22T08:30:39.288Z,101225.81
2022-10-22T08:35:32.828Z,101212.84
2022-10-22T08:40:28.625Z,101234.41
2022-10-22T08:45:26.244Z,101250.84
2022-10-22T08:50:24.868Z,101259.44
2022-10-22T08:55:20.688Z,101259.41
2022-10-22T09:00:17.611Z,101270.63
2022-10-22T09:05:21.339Z,101267.91
2022-10-22T09:10:17.195Z,101285.19
2022-10-22T09:15:17.024Z,101282.50
2022-10-22T09:20:17.620Z,101293.72
2022-10-22T09:25:22.508Z,101286.66
2022-10-22T09:30:22.420Z,101300.41
2022-10-22T09:35:25.382Z,101304.81
2022-10-22T09:40:23.785Z,101313.53
2022-10-22T09:45:24.088Z,101316.09
2022-10-22T09:50:25.975Z,101314.34
2022-10-22T09:55:23.627Z,101329.84
2022-10-22T10:00:27.019Z,101340.88
2022-10-22T10:05:23.176Z,101331.94
2022-10-22T10:10:23.113Z,101348.22
2022-10-22T10:15:23.630Z,101355.09
2022-10-22T10:20:31.380Z,101350.84
2022-10-22T10:25:47.013Z,101359.53
2022-10-22T10:30:48.202Z,101377.75
2022-10-22T10:35:56.456Z,101377.63
2022-10-22T10:40:53.657Z,101387.16
2022-10-22T10:46:03.002Z,101389.75
2022-10-22T10:51:05.716Z,101396.75
2022-10-22T10:56:04.539Z,101398.59
2022-10-22T11:01:03.528Z,101399.47
2022-10-22T11:05:58.829Z,101396.91
2022-10-22T11:10:53.813Z,101393.56
2022-10-22T11:15:49.355Z,101399.72
2022-10-22T11:21:06.439Z,101401.50
2022-10-22T11:25:57.060Z,101404.09
2022-10-22T11:30:52.350Z,101407.44
2022-10-22T11:35:53.280Z,101418.66
2022-10-22T11:40:50.767Z,101412.44
2022-10-22T11:45:44.710Z,101411.53
2022-10-22T11:51:00.244Z,101413.16
2022-10-22T11:55:55.927Z,101413.88
2022-10-22T12:00:51.333Z,101421.81
2022-10-22T12:05:43.404Z,101420.19
2022-10-22T12:10:51.467Z,101420.25
2022-10-22T12:15:50.189Z,101424.66
2022-10-22T12:20:42.642Z,101425.53
2022-10-22T12:25:37.680Z,101435.88
2022-10-22T12:30:31.014Z,101432.25
2022-10-22T12:35:24.649Z,101425.81
2022-10-22T12:40:23.568Z,101437.38
2022-10-22T12:45:16.963Z,101417.94
2022-10-22T12:50:09.737Z,101419.53
2022-10-22T12:55:00.801Z,101421.94
2022-10-22T12:59:55.150Z,101426.38
2022-10-22T13:05:17.226Z,101432.53
2022-10-22T13:10:21.219Z,101428.19
2022-10-22T13:15:37.637Z,101423.78
2022-10-22T13:20:30.804Z,101427.19
2022-10-22T13:25:26.570Z,101427.34
2022-10-22T13:30:23.105Z,101430.69
2022-10-22T13:35:20.258Z,101423.63
2022-10-22T13:40:18.391Z,101425.13
2022-10-22T13:45:10.724Z,101419.84
2022-10-22T13:50:04.628Z,101414.56
2022-10-22T13:54:54.975Z,101422.47
2022-10-22T13:59:53.075Z,101424.25
2022-10-22T14:04:44.700Z,101425.16
2022-10-22T14:09:35.210Z,101451.47
2022-10-22T14:14:25.620Z,101452.47
2022-10-22T14:19:20.950Z,101449.16
2022-10-22T14:24:13.583Z,101443.19
2022-10-22T14:29:12.069Z,101445.66
2022-10-22T14:34:03.048Z,101449.81
2022-10-22T14:38:56.112Z,101446.19
2022-10-22T14:43:46.374Z,101453.97
2022-10-22T14:48:36.508Z,101446.09
2022-10-22T14:53:26.874Z,101440.03
2022-10-22T14:58:20.169Z,101447.97
2022-10-22T15:03:12.122Z,101449.03
2022-10-22T15:08:02.184Z,101448.28
2022-10-22T15:12:52.769Z,101456.22
2022-10-22T15:17:46.188Z,101449.34
2022-10-22T15:22:38.046Z,101443.34
2022-10-22T15:27:28.565Z,101462.53
2022-10-22T15:32:19.494Z,101458.31
2022-10-22T15:37:15.564Z,101453.16
2022-10-22T15:42:06.974Z,101455.88
2022-10-22T15:46:58.260Z,101461.16
2022-10-22T15:51:48.996Z,101463.06
2022-10-22T15:56:42.998Z,101467.47
2022-10-22T16:01:35.349Z,101471.03
2022-10-22T16:06:26.000Z,101467.66
2022-10-22T16:11:16.827Z,101462.56
2022-10-22T16:16:11.976Z,101456.63
2022-10-22T16:21:02.925Z,101469.78
2022-10-22T16:25:53.364Z,101467.31
2022-10-22T16:30:43.458Z,101455.25
2022-10-22T16:35:36.748Z,101458.00
2022-10-22T16:40:29.341Z,101457.28
2022-10-22T16:45:21.314Z,101454.72
2022-10-22T16:50:12.167Z,101466.13
2022-10-22T16:55:05.855Z,101473.16
2022-10-22T16:59:56.679Z,101488.06
2022-10-22T17:04:46.872Z,101485.56
2022-10-22T17:09:38.381Z,101487.38
2022-10-22T17:14:31.573Z,101474.44
2022-10-22T17:19:27.513Z,101478.84
2022-10-22T17:24:18.135Z,101483.22
2022-10-22T17:29:09.162Z,101487.59
2022-10-22T17:34:03.215Z,101487.63
2022-10-22T17:39:02.026Z,101480.78
2022-10-22T17:43:53.197Z,101492.97
2022-10-22T17:48:44.311Z,101493.00
2022-10-22T17:53:43.117Z,101496.50
2022-10-22T17:58:34.556Z,101495.72
2022-10-22T18:03:32.246Z,101507.00
2022-10-22T18:08:23.649Z,101514.00
2022-10-22T18:13:23.712Z,101532.25
2022-10-22T18:18:14.745Z,101538.38
2022-10-22T18:23:08.046Z,101521.88
2022-10-22T18:27:58.533Z,101533.19
2022-10-22T18:32:52.158Z,101521.94
2022-10-22T18:37:47.870Z,101522.81
2022-10-22T18:42:39.763Z,101513.28
2022-10-22T18:47:30.492Z,101509.84
2022-10-22T18:52:24.985Z,101512.47
2022-10-22T18:57:16.913Z,101502.91
2022-10-22T19:02:07.500Z,101495.97
2022-10-22T19:07:00.697Z,101495.13
2022-10-22T19:11:55.329Z,101496.84
2022-10-22T19:16:46.749Z,101493.41
2022-10-22T19:21:37.923Z,101494.28
2022-10-22T19:26:32.134Z,101494.31
2022-10-22T19:31:28.466Z,101500.38
2022-10-22T19:36:21.071Z,101495.19
2022-10-22T19:41:16.601Z,101497.78
2022-10-22T19:46:08.947Z,101490.00
2022-10-22T19:51:05.867Z,101496.94
2022-10-22T19:56:00.439Z,101496.09
2022-10-22T20:00:53.934Z,101494.34
2022-10-22T20:05:45.035Z,101498.69
2022-10-22T20:10:38.455Z,101497.81
2022-10-22T20:15:28.963Z,101483.06
2022-10-22T20:20:21.880Z,101481.34
2022-10-22T20:25:16.218Z,101493.50
2022-10-22T20:30:11.347Z,101489.16
2022-10-22T20:35:03.824Z,101486.56
2022-10-22T20:39:56.976Z,101497.84
2022-10-22T20:44:47.939Z,101510.84
2022-10-22T20:49:41.400Z,101497.84
2022-10-22T20:54:33.963Z,101513.44
2022-10-22T20:59:24.943Z,101523.84
2022-10-22T21:04:16.612Z,101526.47
2022-10-22T21:09:16.022Z,101503.91
2022-10-22T21:14:07.727Z,101509.97
2022-10-22T21:18:59.792Z,101500.44
2022-10-22T21:23:53.256Z,101509.09
2022-10-22T21:28:46.379Z,101507.38
2022-10-22T21:33:40.722Z,101513.47
2022-10-22T21:38:31.337Z,101507.34
2022-10-22T21:43:22.385Z,101509.09
2022-10-22T21:48:24.958Z,101499.56
2022-10-22T21:53:17.077Z,101503.03
2022-10-22T21:58:07.705Z,101498.69
2022-10-22T22:02:59.491Z,101491.75
2022-10-22T22:07:52.845Z,101492.63
2022-10-22T22:12:43.396Z,101490.88
2022-10-22T22:17:33.893Z,101486.56
2022-10-22T22:22:28.152Z,101478.75
2022-10-22T22:27:26.214Z,101470.94
2022-10-22T22:32:18.706Z,101476.16
2022-10-22T22:37:10.441Z,101477.88
2022-10-22T22:42:01.482Z,101477.03
2022-10-22T22:46:54.538Z,101473.56
2022-10-22T22:51:44.948Z,101474.44
2022-10-22T22:56:37.356Z,101469.22
2022-10-22T23:01:29.681Z,101477.03
2022-10-22T23:06:23.098Z,101461.44
2022-10-22T23:11:16.110Z,101435.44
2022-10-22T23:16:09.462Z,101442.38
2022-10-22T23:21:00.068Z,101448.41
2022-10-22T23:25:53.962Z,101430.25
2022-10-22T23:30:47.363Z,101418.97
2022-10-22T23:35:37.437Z,101425.91
2022-10-22T23:40:29.688Z,101425.06
2022-10-22T23:45:22.756Z,101407.72
2022-10-22T23:50:13.517Z,101428.50
2022-10-22T23:55:04.939Z,101415.53
2022-10-22T23:59:57.029Z,101419.84
